KLM947 EHAM-EGAC
Flight info
| Callsign | KLM947 |
|---|---|
| Flight time | N/A |
| Altitude | 38000 |
| Route | BERGI L602 NALAX L46 GETNO DCT REMSI DCT NINEB M148 MAGEE |
| Aircraft | B737/M-SDE2E3FGHIRWXY/LB1 |
Departure
| Time | 2026-04-27 08:04 |
|---|---|
| Airport | Amsterdam Airport Schiphol (EHAM) |
Arrival
| Time | N/A |
|---|---|
| Airport | George Best Belfast City Airport (EGAC) |
| Time | Latitude | Longitude | Altitude | Speed | Heading |
|---|---|---|---|---|---|
| 2026-04-27 07:16 | 52.30791 | 4.77101 | -2 ft | 0 kts | 183° |
| 2026-04-27 07:46 | 52.30795 | 4.77102 | -2 ft | 4 kts | 184° |
| 2026-04-27 07:47 | 52.30821 | 4.77106 | -2 ft | 4 kts | 187° |
| 2026-04-27 07:47 | 52.30844 | 4.77107 | -2 ft | 4 kts | 160° |
| 2026-04-27 07:47 | 52.30850 | 4.77105 | -2 ft | 3 kts | 144° |
| 2026-04-27 07:47 | 52.30844 | 4.77139 | -2 ft | 3 kts | 95° |
| 2026-04-27 07:48 | 52.30844 | 4.77180 | -2 ft | 3 kts | 90° |
| 2026-04-27 07:48 | 52.30843 | 4.77207 | -2 ft | 0 kts | 94° |
| 2026-04-27 07:51 | 52.30843 | 4.77209 | -2 ft | 1 kts | 94° |
| 2026-04-27 07:51 | 52.30842 | 4.77243 | -2 ft | 4 kts | 93° |
| 2026-04-27 07:51 | 52.30840 | 4.77305 | -2 ft | 6 kts | 92° |
| 2026-04-27 07:52 | 52.30838 | 4.77387 | -2 ft | 8 kts | 93° |
| 2026-04-27 07:52 | 52.30834 | 4.77489 | -2 ft | 10 kts | 94° |
| 2026-04-27 07:52 | 52.30851 | 4.77593 | -2 ft | 10 kts | 40° |
| 2026-04-27 07:52 | 52.30922 | 4.77612 | -2 ft | 11 kts | 3° |
| 2026-04-27 07:53 | 52.30979 | 4.77618 | -2 ft | 13 kts | 3° |
| 2026-04-27 07:53 | 52.31119 | 4.77630 | -2 ft | 17 kts | 3° |
| 2026-04-27 07:53 | 52.31202 | 4.77638 | -2 ft | 17 kts | 2° |
| 2026-04-27 07:53 | 52.31369 | 4.77653 | -2 ft | 19 kts | 4° |
| 2026-04-27 07:54 | 52.31493 | 4.77589 | -2 ft | 20 kts | 317° |
| 2026-04-27 07:54 | 52.31557 | 4.77475 | -2 ft | 21 kts | 302° |
| 2026-04-27 07:54 | 52.31573 | 4.77233 | -2 ft | 23 kts | 267° |
| 2026-04-27 07:54 | 52.31564 | 4.76966 | -2 ft | 24 kts | 266° |
| 2026-04-27 07:55 | 52.31554 | 4.76679 | -2 ft | 26 kts | 266° |
| 2026-04-27 07:55 | 52.31544 | 4.76386 | -2 ft | 25 kts | 266° |
| 2026-04-27 07:55 | 52.31534 | 4.76109 | -2 ft | 24 kts | 267° |
| 2026-04-27 07:55 | 52.31524 | 4.75827 | -2 ft | 25 kts | 267° |
| 2026-04-27 07:56 | 52.31515 | 4.75547 | -2 ft | 24 kts | 267° |
| 2026-04-27 07:56 | 52.31505 | 4.75270 | -2 ft | 24 kts | 266° |
| 2026-04-27 07:56 | 52.31497 | 4.74996 | -2 ft | 24 kts | 266° |
| 2026-04-27 07:56 | 52.31488 | 4.74734 | -2 ft | 22 kts | 266° |
| 2026-04-27 07:57 | 52.31480 | 4.74499 | -2 ft | 17 kts | 267° |
| 2026-04-27 07:57 | 52.31481 | 4.74340 | -2 ft | 12 kts | 292° |
| 2026-04-27 07:57 | 52.31558 | 4.74299 | -2 ft | 14 kts | 4° |
| 2026-04-27 07:57 | 52.31666 | 4.74309 | -2 ft | 17 kts | 3° |
| 2026-04-27 07:58 | 52.31789 | 4.74321 | -2 ft | 18 kts | 3° |
| 2026-04-27 07:58 | 52.31921 | 4.74332 | -2 ft | 19 kts | 3° |
| 2026-04-27 07:58 | 52.32020 | 4.74300 | -2 ft | 14 kts | 306° |
| 2026-04-27 07:58 | 52.32035 | 4.74104 | -2 ft | 20 kts | 273° |
| 2026-04-27 07:59 | 52.32043 | 4.73871 | -2 ft | 21 kts | 273° |
| 2026-04-27 07:59 | 52.32073 | 4.73402 | -2 ft | 19 kts | 296° |
| 2026-04-27 07:59 | 52.32162 | 4.73251 | -2 ft | 18 kts | 319° |
| 2026-04-27 08:00 | 52.32259 | 4.73115 | -2 ft | 19 kts | 320° |
| 2026-04-27 08:00 | 52.32367 | 4.72965 | -2 ft | 22 kts | 320° |
| 2026-04-27 08:00 | 52.32487 | 4.72796 | -2 ft | 24 kts | 319° |
| 2026-04-27 08:00 | 52.32616 | 4.72614 | -2 ft | 25 kts | 319° |
| 2026-04-27 08:01 | 52.32733 | 4.72421 | -2 ft | 23 kts | 311° |
| 2026-04-27 08:01 | 52.32834 | 4.72233 | -2 ft | 21 kts | 311° |
| 2026-04-27 08:01 | 52.32925 | 4.72065 | -2 ft | 19 kts | 311° |
| 2026-04-27 08:01 | 52.33011 | 4.71905 | -2 ft | 19 kts | 311° |
| 2026-04-27 08:02 | 52.33101 | 4.71741 | -2 ft | 17 kts | 312° |
| 2026-04-27 08:02 | 52.33148 | 4.71627 | -2 ft | 12 kts | 287° |
| 2026-04-27 08:02 | 52.33130 | 4.71492 | -2 ft | 11 kts | 248° |
| 2026-04-27 08:02 | 52.33158 | 4.71374 | -2 ft | 12 kts | 310° |
| 2026-04-27 08:03 | 52.33214 | 4.71271 | -2 ft | 13 kts | 311° |
| 2026-04-27 08:03 | 52.33280 | 4.71150 | -2 ft | 16 kts | 311° |
| 2026-04-27 08:03 | 52.33357 | 4.71005 | -3 ft | 16 kts | 311° |
| 2026-04-27 08:03 | 52.33408 | 4.70945 | -3 ft | 8 kts | 351° |
| 2026-04-27 08:04 | 52.33500 | 4.70951 | -3 ft | 30 kts | 3° |
| 2026-04-27 08:04 | 52.33960 | 4.70993 | -2 ft | 103 kts | 3° |
| 2026-04-27 08:04 | 52.34881 | 4.71073 | 35 ft | 159 kts | 3° |
| 2026-04-27 08:04 | 52.36031 | 4.71152 | 682 ft | 168 kts | 6° |
| 2026-04-27 08:05 | 52.37209 | 4.71272 | 1559 ft | 171 kts | 6° |
| 2026-04-27 08:05 | 52.38446 | 4.71399 | 2188 ft | 189 kts | 4° |
| 2026-04-27 08:05 | 52.39844 | 4.71541 | 2618 ft | 212 kts | 4° |
| 2026-04-27 08:05 | 52.41401 | 4.71658 | 3039 ft | 237 kts | 3° |
| 2026-04-27 08:06 | 52.43077 | 4.71424 | 3777 ft | 248 kts | 343° |
| 2026-04-27 08:06 | 52.44557 | 4.69886 | 4540 ft | 258 kts | 316° |
| 2026-04-27 08:06 | 52.45767 | 4.67734 | 5491 ft | 259 kts | 313° |
| 2026-04-27 08:06 | 52.47003 | 4.65566 | 6442 ft | 263 kts | 314° |
| 2026-04-27 08:07 | 52.48294 | 4.63393 | 7276 ft | 271 kts | 315° |
| 2026-04-27 08:07 | 52.49641 | 4.61187 | 8189 ft | 274 kts | 315° |
| 2026-04-27 08:07 | 52.50994 | 4.58971 | 9269 ft | 275 kts | 315° |
| 2026-04-27 08:07 | 52.52444 | 4.56907 | 10247 ft | 281 kts | 326° |
| 2026-04-27 08:08 | 52.54148 | 4.55260 | 11024 ft | 291 kts | 330° |
| 2026-04-27 08:08 | 52.55988 | 4.53599 | 11450 ft | 314 kts | 330° |
| 2026-04-27 08:08 | 52.57973 | 4.51806 | 11838 ft | 335 kts | 329° |
| 2026-04-27 08:08 | 52.60012 | 4.49900 | 12704 ft | 339 kts | 326° |
| 2026-04-27 08:09 | 52.61856 | 4.47438 | 13535 ft | 344 kts | 311° |
| 2026-04-27 08:09 | 52.63314 | 4.44329 | 14506 ft | 344 kts | 302° |
| 2026-04-27 08:09 | 52.64656 | 4.41045 | 15388 ft | 347 kts | 302° |
| 2026-04-27 08:09 | 52.66013 | 4.37726 | 16260 ft | 351 kts | 302° |
| 2026-04-27 08:10 | 52.67373 | 4.34422 | 17099 ft | 354 kts | 303° |
| 2026-04-27 08:10 | 52.68769 | 4.31050 | 17976 ft | 358 kts | 303° |
| 2026-04-27 08:10 | 52.70187 | 4.27637 | 18750 ft | 363 kts | 303° |
| 2026-04-27 08:10 | 52.71627 | 4.24180 | 19436 ft | 367 kts | 303° |
| 2026-04-27 08:11 | 52.73083 | 4.20688 | 20199 ft | 369 kts | 303° |
| 2026-04-27 08:11 | 52.74526 | 4.17225 | 20946 ft | 372 kts | 303° |
| 2026-04-27 08:11 | 52.75996 | 4.13693 | 21645 ft | 375 kts | 302° |
| 2026-04-27 08:11 | 52.77479 | 4.10127 | 22333 ft | 378 kts | 302° |
| 2026-04-27 08:12 | 52.78973 | 4.06530 | 23021 ft | 381 kts | 302° |
| 2026-04-27 08:12 | 52.80479 | 4.02898 | 23684 ft | 384 kts | 302° |
| 2026-04-27 08:12 | 52.81998 | 3.99231 | 24237 ft | 389 kts | 302° |
| 2026-04-27 08:12 | 52.83530 | 3.95525 | 24755 ft | 392 kts | 302° |
| 2026-04-27 08:13 | 52.85073 | 3.91790 | 25311 ft | 394 kts | 301° |
| 2026-04-27 08:13 | 52.86623 | 3.88029 | 25865 ft | 396 kts | 301° |
| 2026-04-27 08:13 | 52.88179 | 3.84251 | 26384 ft | 399 kts | 301° |
| 2026-04-27 08:13 | 52.89747 | 3.80436 | 26889 ft | 402 kts | 301° |
| 2026-04-27 08:14 | 52.91325 | 3.76591 | 27390 ft | 405 kts | 301° |
| 2026-04-27 08:14 | 52.92914 | 3.72715 | 27882 ft | 407 kts | 301° |
| 2026-04-27 08:14 | 52.94513 | 3.68809 | 28350 ft | 410 kts | 301° |
| 2026-04-27 08:14 | 52.96119 | 3.64878 | 28816 ft | 413 kts | 301° |
| 2026-04-27 08:15 | 52.97720 | 3.60951 | 29188 ft | 418 kts | 301° |
| 2026-04-27 08:15 | 52.99353 | 3.56942 | 29617 ft | 420 kts | 301° |
| 2026-04-27 08:15 | 53.00993 | 3.52910 | 30074 ft | 422 kts | 301° |
| 2026-04-27 08:15 | 53.02643 | 3.48846 | 30457 ft | 425 kts | 301° |
| 2026-04-27 08:16 | 53.04299 | 3.44763 | 30794 ft | 427 kts | 301° |
| 2026-04-27 08:16 | 53.05962 | 3.40658 | 31237 ft | 427 kts | 301° |
| 2026-04-27 08:16 | 53.07612 | 3.36578 | 31785 ft | 424 kts | 301° |
| 2026-04-27 08:16 | 53.09159 | 3.32437 | 32323 ft | 419 kts | 294° |
| 2026-04-27 08:17 | 53.10327 | 3.28081 | 32791 ft | 415 kts | 288° |
| 2026-04-27 08:17 | 53.11113 | 3.23464 | 33236 ft | 413 kts | 281° |
| 2026-04-27 08:17 | 53.11724 | 3.18816 | 33712 ft | 411 kts | 280° |
| 2026-04-27 08:17 | 53.12317 | 3.14167 | 34183 ft | 410 kts | 280° |
| 2026-04-27 08:18 | 53.12907 | 3.09535 | 34573 ft | 409 kts | 280° |
| 2026-04-27 08:18 | 53.13503 | 3.04900 | 34898 ft | 409 kts | 281° |
| 2026-04-27 08:18 | 53.14106 | 3.00257 | 35172 ft | 411 kts | 281° |
| 2026-04-27 08:18 | 53.14713 | 2.95605 | 35486 ft | 411 kts | 281° |
| 2026-04-27 08:19 | 53.15321 | 2.90959 | 35817 ft | 410 kts | 281° |
| 2026-04-27 08:19 | 53.15927 | 2.86317 | 36130 ft | 410 kts | 281° |
| 2026-04-27 08:19 | 53.16532 | 2.81669 | 36410 ft | 411 kts | 281° |
| 2026-04-27 08:19 | 53.17137 | 2.77008 | 36700 ft | 411 kts | 281° |
| 2026-04-27 08:20 | 53.17738 | 2.72356 | 37000 ft | 411 kts | 281° |
| 2026-04-27 08:20 | 53.18339 | 2.67693 | 37283 ft | 411 kts | 281° |
| 2026-04-27 08:20 | 53.18939 | 2.63020 | 37552 ft | 412 kts | 281° |
| 2026-04-27 08:20 | 53.19539 | 2.58338 | 37831 ft | 412 kts | 281° |
| 2026-04-27 08:21 | 53.20136 | 2.53663 | 38108 ft | 412 kts | 282° |
| 2026-04-27 08:21 | 53.20730 | 2.48985 | 38315 ft | 414 kts | 282° |
| 2026-04-27 08:21 | 53.21917 | 2.39533 | 38329 ft | 421 kts | 281° |
| 2026-04-27 08:22 | 53.23105 | 2.29990 | 38338 ft | 418 kts | 281° |
| 2026-04-27 08:22 | 53.24280 | 2.20494 | 38321 ft | 416 kts | 281° |
| 2026-04-27 08:23 | 53.25439 | 2.11061 | 38323 ft | 413 kts | 281° |
| 2026-04-27 08:23 | 53.26585 | 2.01673 | 38316 ft | 412 kts | 282° |
| 2026-04-27 08:24 | 53.27715 | 1.92355 | 38325 ft | 412 kts | 281° |
| 2026-04-27 08:24 | 53.28847 | 1.82952 | 38322 ft | 413 kts | 281° |
| 2026-04-27 08:25 | 53.29975 | 1.73523 | 38323 ft | 415 kts | 281° |
| 2026-04-27 08:25 | 53.31101 | 1.64037 | 38323 ft | 417 kts | 281° |
| 2026-04-27 08:26 | 53.32227 | 1.54494 | 38317 ft | 419 kts | 281° |
| 2026-04-27 08:26 | 53.33444 | 1.44919 | 38314 ft | 421 kts | 284° |
| 2026-04-27 08:27 | 53.34863 | 1.35399 | 38312 ft | 422 kts | 284° |
| 2026-04-27 08:27 | 53.36283 | 1.25858 | 38310 ft | 423 kts | 284° |